Preview of NWS' New Version of Forecast
This preview is not operational and should not be used for support decisions.

Terminal Aerodrome Forecast (TAF)

Issued by National Weather Service (NWS)

                            
786 
FTUS42 KKEY 171125
TAFEYW
TAF
KEYW 171125Z 1712/1812 11007KT P6SM FEW200 SCT250=